Sauk Centre, MN (56378)

10:24 AM CDT on August 27, 2014 (GMT -0500)
Sauk Centre | Change Station
CLOSE
Current Station
Personal Weather Station
Location: Sauk Centre, MN
Elevation: 1253 ft
Nearby Weather Stations

Elev 1253 ft 45.74 °N, 94.96 °W | Updated 9 seconds ago

Scattered Clouds
Scattered Clouds
66.2 °F
Feels Like 66.2 °F
N
4.5
Wind Variable Wind from NW
Gusts 6.0 mph

Today
High -- | Low -- °F
--% Chance of Precip.
Yesterday
High -- | Low -- °F
Precip. -- in
6:35 AM 8:07 PM
Waxing Crescent, 4% visible
Pressure 30.23 in
Visibility 10.0 miles
Clouds Scattered Clouds 3500 ft
Scattered Clouds 8000 ft
Dew Point 58 °F
Humidity 75%
Rainfall 0.09 in
Snow Depth Not available.
UV 4 out of 12
Pollen 8.40 out of 12
Air Quality Not available.
Flu Activity Not available.
METAR KD39 271512Z AUTO 15005KT 10SM SCT035 SCT080 18/13 A3023 RMK AO2 T01770133

More Conditions Fewer Conditions

Pressure 30.23 in
Visibility 10.0 miles
Clouds Scattered Clouds 3500 ft
Scattered Clouds 8000 ft
Dew Point 58 °F
Humidity 75%
Rainfall 0.09 in
Snow Depth Not available.
UV 4 out of 12
Pollen 8.40 out of 12
Air Quality Not available.
Flu Activity Not available.
METAR KD39 271512Z AUTO 15005KT 10SM SCT035 SCT080 18/13 A3023 RMK AO2 T01770133

More Conditions Fewer Conditions

10-Day Weather Forecast

Almanac

Astronomy

Aug. 27, 2014 Rise Set
Actual Time 6:35 AM CDT 8:07 PM CDT
Civil Twilight 6:03 AM CDT 8:38 PM CDT
Nautical Twilight 5:26 AM CDT 9:15 PM CDT
Astronomical Twilight 4:45 AM CDT 9:56 PM CDT
Moon 8:40 AM CDT 8:50 PM CDT
Length of Visible Light 14h 34m
Length of Day
13h 32m
Tomorrow will be 3m 3s shorter.
Waxing Crescent, 4% of the Moon is Illuminated
Today
Waxing Crescent
Sep 2
First Quarter
Sep 8
Full
Sep 15
Last Quarter
Sep 24
New

Today's Extremes

State Highs State Lows

Community

WunderPhotos

Upload Photos

1,747,708 photos uploaded!

Nearby

Snow Depth

Station Depth Elevation
No new snow has been reported.

Earthquake Activity

City Distance Mag. Time & Date
No recent earthquake activity has been reported nearby.
Minimum magnitude displayed is 2.5.

Coastal Water Temperatures

Place Temperature
No Stations Reporting

Nearby Weather Stations